Wrangell, Alaska
Current Conditions -  °F | °C
As of 12:56 AM on Saturday 29 Nov 2014 (Local Time) from PAWG Reporting Station
Clear Clear  
Wind Chill:   Ceiling: Unl
Heat Index: 18°   Visibility: 10mi
Dew Point:   Wind: 7mph
Humidity: 58%   Direction: 340°NNW
Pressure: 30.17"   Gusts: NA
Location:  56.47°N, 132.38°W
Report Text: PAWG 290956Z AUTO 34006KT 10SM CLR M08/M15 A3017 RMK AO1
Loading
Personal Weather Stations






























Interactive Weather Map New forecast layout! Learn more

10-Day Weather Forecast

Advertisements
Track Severe Weather on mobile